sensor_id;sensor_type;location;lat;lon;timestamp;pressure;altitude;pressure_sealevel;temperature;humidity
19797;BME280;10058;57.654;12.044;2023-03-21T00:01:10;100735.72;;;5.97;100.00
19797;BME280;10058;57.654;12.044;2023-03-21T00:03:36;100731.38;;;5.97;100.00
19797;BME280;10058;57.654;12.044;2023-03-21T00:06:05;100726.06;;;6.15;100.00
19797;BME280;10058;57.654;12.044;2023-03-21T00:08:31;100728.06;;;6.20;100.00
19797;BME280;10058;57.654;12.044;2023-03-21T00:10:56;100727.25;;;6.21;100.00
19797;BME280;10058;57.654;12.044;2023-03-21T00:13:22;100722.75;;;6.19;100.00
19797;BME280;10058;57.654;12.044;2023-03-21T00:15:47;100720.44;;;6.26;100.00
19797;BME280;10058;57.654;12.044;2023-03-21T00:18:18;100729.16;;;6.25;100.00
19797;BME280;10058;57.654;12.044;2023-03-21T00:20:44;100730.25;;;6.31;100.00
19797;BME280;10058;57.654;12.044;2023-03-21T00:23:20;100726.13;;;6.16;100.00
19797;BME280;10058;57.654;12.044;2023-03-21T00:25:45;100723.50;;;6.16;100.00
19797;BME280;10058;57.654;12.044;2023-03-21T00:28:10;100720.53;;;6.09;100.00
19797;BME280;10058;57.654;12.044;2023-03-21T00:30:36;100726.28;;;6.00;100.00
19797;BME280;10058;57.654;12.044;2023-03-21T00:33:03;100722.47;;;6.13;100.00
19797;BME280;10058;57.654;12.044;2023-03-21T00:35:28;100718.94;;;6.12;100.00
19797;BME280;10058;57.654;12.044;2023-03-21T00:37:54;100719.53;;;6.05;100.00
19797;BME280;10058;57.654;12.044;2023-03-21T00:40:19;100721.09;;;6.02;100.00
19797;BME280;10058;57.654;12.044;2023-03-21T00:42:44;100719.38;;;6.02;100.00
19797;BME280;10058;57.654;12.044;2023-03-21T00:45:09;100723.22;;;5.91;100.00
19797;BME280;10058;57.654;12.044;2023-03-21T00:47:35;100714.28;;;6.05;100.00
19797;BME280;10058;57.654;12.044;2023-03-21T00:50:01;100715.94;;;6.03;100.00
19797;BME280;10058;57.654;12.044;2023-03-21T00:52:26;100712.47;;;6.04;100.00
19797;BME280;10058;57.654;12.044;2023-03-21T00:54:52;100710.69;;;6.03;100.00
19797;BME280;10058;57.654;12.044;2023-03-21T00:57:17;100673.56;;;5.76;100.00
19797;BME280;10058;57.654;12.044;2023-03-21T00:59:42;100712.47;;;6.04;100.00
19797;BME280;10058;57.654;12.044;2023-03-21T01:02:08;100708.31;;;6.09;100.00
19797;BME280;10058;57.654;12.044;2023-03-21T01:04:33;100706.72;;;6.13;100.00
19797;BME280;10058;57.654;12.044;2023-03-21T01:06:58;100703.63;;;6.02;100.00
19797;BME280;10058;57.654;12.044;2023-03-21T01:09:23;100714.75;;;5.97;100.00
19797;BME280;10058;57.654;12.044;2023-03-21T01:11:49;100714.66;;;5.95;100.00
19797;BME280;10058;57.654;12.044;2023-03-21T01:14:15;100722.69;;;5.98;100.00
19797;BME280;10058;57.654;12.044;2023-03-21T01:16:41;100720.59;;;5.91;100.00
19797;BME280;10058;57.654;12.044;2023-03-21T01:19:07;100722.09;;;5.86;100.00
19797;BME280;10058;57.654;12.044;2023-03-21T01:21:33;100721.38;;;5.88;100.00
19797;BME280;10058;57.654;12.044;2023-03-21T01:23:58;100724.81;;;5.87;100.00
19797;BME280;10058;57.654;12.044;2023-03-21T01:26:24;100721.97;;;5.83;100.00
19797;BME280;10058;57.654;12.044;2023-03-21T01:28:49;100719.47;;;5.86;100.00
19797;BME280;10058;57.654;12.044;2023-03-21T01:31:15;100716.31;;;5.93;100.00
19797;BME280;10058;57.654;12.044;2023-03-21T01:33:40;100707.56;;;5.92;100.00
19797;BME280;10058;57.654;12.044;2023-03-21T01:36:06;100711.63;;;5.86;100.00
19797;BME280;10058;57.654;12.044;2023-03-21T01:38:31;100710.09;;;5.91;100.00
19797;BME280;10058;57.654;12.044;2023-03-21T01:40:58;100707.69;;;5.96;100.00
19797;BME280;10058;57.654;12.044;2023-03-21T01:43:28;100703.34;;;5.96;100.00
19797;BME280;10058;57.654;12.044;2023-03-21T01:48:31;100705.00;;;5.94;100.00
19797;BME280;10058;57.654;12.044;2023-03-21T01:50:56;100704.09;;;5.93;100.00
19797;BME280;10058;57.654;12.044;2023-03-21T01:53:24;100700.66;;;5.94;100.00
19797;BME280;10058;57.654;12.044;2023-03-21T01:55:54;100710.41;;;5.97;100.00
19797;BME280;10058;57.654;12.044;2023-03-21T01:58:19;100714.75;;;5.97;100.00
19797;BME280;10058;57.654;12.044;2023-03-21T02:00:45;100713.09;;;5.99;100.00
19797;BME280;10058;57.654;12.044;2023-03-21T02:03:11;100716.84;;;5.86;100.00
19797;BME280;10058;57.654;12.044;2023-03-21T02:05:51;100718.88;;;5.91;100.00
19797;BME280;10058;57.654;12.044;2023-03-21T02:08:17;100718.94;;;5.93;100.00
19797;BME280;10058;57.654;12.044;2023-03-21T02:10:44;100712.59;;;5.88;100.00
19797;BME280;10058;57.654;12.044;2023-03-21T02:13:12;100715.81;;;5.82;100.00
19797;BME280;10058;57.654;12.044;2023-03-21T02:15:37;100719.84;;;5.93;100.00
19797;BME280;10058;57.654;12.044;2023-03-21T02:21:11;100729.50;;;5.94;100.00
19797;BME280;10058;57.654;12.044;2023-03-21T02:34:08;100737.56;;;5.80;100.00
19797;BME280;10058;57.654;12.044;2023-03-21T02:39:09;100736.03;;;5.85;100.00
19797;BME280;10058;57.654;12.044;2023-03-21T02:41:45;100748.19;;;5.83;100.00
19797;BME280;10058;57.654;12.044;2023-03-21T02:44:20;100736.81;;;5.82;100.00
19797;BME280;10058;57.654;12.044;2023-03-21T02:46:58;100734.25;;;5.84;100.00
19797;BME280;10058;57.654;12.044;2023-03-21T02:49:26;100730.81;;;5.85;100.00
19797;BME280;10058;57.654;12.044;2023-03-21T02:51:54;100730.66;;;5.82;100.00
19797;BME280;10058;57.654;12.044;2023-03-21T02:54:21;100722.25;;;5.89;100.00
19797;BME280;10058;57.654;12.044;2023-03-21T02:56:48;100726.75;;;5.91;100.00
19797;BME280;10058;57.654;12.044;2023-03-21T02:59:15;100715.34;;;5.91;100.00
19797;BME280;10058;57.654;12.044;2023-03-21T03:01:41;100717.00;;;5.89;100.00
19797;BME280;10058;57.654;12.044;2023-03-21T03:04:17;100725.41;;;5.82;100.00
19797;BME280;10058;57.654;12.044;2023-03-21T03:06:46;100719.63;;;5.89;100.00
19797;BME280;10058;57.654;12.044;2023-03-21T03:09:29;100717.25;;;5.76;100.00
19797;BME280;10058;57.654;12.044;2023-03-21T03:12:16;100717.38;;;5.59;100.00
19797;BME280;10058;57.654;12.044;2023-03-21T03:20:09;100707.41;;;5.89;100.00
19797;BME280;10058;57.654;12.044;2023-03-21T03:22:45;100709.66;;;5.82;100.00
19797;BME280;10058;57.654;12.044;2023-03-21T03:25:13;100714.91;;;5.82;100.00
19797;BME280;10058;57.654;12.044;2023-03-21T03:27:44;100708.16;;;5.87;100.00
19797;BME280;10058;57.654;12.044;2023-03-21T03:30:11;100706.38;;;5.86;100.00
19797;BME280;10058;57.654;12.044;2023-03-21T03:35:08;100711.75;;;5.89;100.00
19797;BME280;10058;57.654;12.044;2023-03-21T03:37:35;100709.53;;;5.79;100.00
19797;BME280;10058;57.654;12.044;2023-03-21T03:40:09;100716.56;;;5.80;100.00
19797;BME280;10058;57.654;12.044;2023-03-21T03:42:37;100712.00;;;5.76;100.00
19797;BME280;10058;57.654;12.044;2023-03-21T03:45:06;100716.72;;;5.83;100.00
19797;BME280;10058;57.654;12.044;2023-03-21T03:52:28;100729.53;;;5.77;100.00
19797;BME280;10058;57.654;12.044;2023-03-21T03:54:55;100724.50;;;5.81;100.00
19797;BME280;10058;57.654;12.044;2023-03-21T03:57:22;100726.00;;;5.76;100.00
19797;BME280;10058;57.654;12.044;2023-03-21T03:59:49;100718.38;;;5.81;100.00
19797;BME280;10058;57.654;12.044;2023-03-21T04:02:14;100717.53;;;5.82;100.00
19797;BME280;10058;57.654;12.044;2023-03-21T04:04:41;100720.31;;;5.85;100.00
19797;BME280;10058;57.654;12.044;2023-03-21T04:07:06;100712.28;;;5.82;100.00
19797;BME280;10058;57.654;12.044;2023-03-21T04:09:31;100712.59;;;5.88;100.00
19797;BME280;10058;57.654;12.044;2023-03-21T04:11:57;100710.25;;;5.94;100.00
19797;BME280;10058;57.654;12.044;2023-03-21T04:14:23;100703.06;;;5.90;100.00
19797;BME280;10058;57.654;12.044;2023-03-21T04:16:48;100712.88;;;5.94;100.00
19797;BME280;10058;57.654;12.044;2023-03-21T04:19:14;100670.88;;;5.75;100.00
19797;BME280;10058;57.654;12.044;2023-03-21T04:21:39;100711.22;;;5.96;100.00
19797;BME280;10058;57.654;12.044;2023-03-21T04:24:05;100709.28;;;5.92;100.00
19797;BME280;10058;57.654;12.044;2023-03-21T04:26:31;100701.13;;;5.86;100.00
19797;BME280;10058;57.654;12.044;2023-03-21T04:28:57;100701.41;;;5.92;100.00
19797;BME280;10058;57.654;12.044;2023-03-21T04:31:24;100697.69;;;5.87;100.00
19797;BME280;10058;57.654;12.044;2023-03-21T04:33:51;100691.53;;;5.86;100.00
19797;BME280;10058;57.654;12.044;2023-03-21T04:36:16;100700.97;;;5.83;100.00
19797;BME280;10058;57.654;12.044;2023-03-21T04:38:51;100695.88;;;5.86;100.00
19797;BME280;10058;57.654;12.044;2023-03-21T04:41:16;100696.63;;;5.83;100.00
19797;BME280;10058;57.654;12.044;2023-03-21T04:43:41;100696.91;;;5.89;100.00
19797;BME280;10058;57.654;12.044;2023-03-21T04:46:08;100694.59;;;5.96;100.00
19797;BME280;10058;57.654;12.044;2023-03-21T04:48:33;100705.16;;;5.97;100.00
19797;BME280;10058;57.654;12.044;2023-03-21T04:50:58;100702.44;;;5.96;100.00
19797;BME280;10058;57.654;12.044;2023-03-21T04:53:24;100698.25;;;5.99;100.00
19797;BME280;10058;57.654;12.044;2023-03-21T04:55:49;100692.38;;;6.05;100.00
19797;BME280;10058;57.654;12.044;2023-03-21T04:58:15;100703.00;;;6.08;100.00
19797;BME280;10058;57.654;12.044;2023-03-21T05:00:40;100708.44;;;6.12;100.00
19797;BME280;10058;57.654;12.044;2023-03-21T05:03:06;100709.13;;;6.08;100.00
19797;BME280;10058;57.654;12.044;2023-03-21T05:05:33;100708.88;;;6.02;100.00
19797;BME280;10058;57.654;12.044;2023-03-21T05:07:58;100709.50;;;5.97;100.00
19797;BME280;10058;57.654;12.044;2023-03-21T05:10:24;100721.22;;;5.85;100.00
19797;BME280;10058;57.654;12.044;2023-03-21T05:12:49;100722.78;;;5.82;100.00
19797;BME280;10058;57.654;12.044;2023-03-21T05:15:14;100729.91;;;5.84;100.00
19797;BME280;10058;57.654;12.044;2023-03-21T05:17:40;100723.63;;;5.81;100.00
19797;BME280;10058;57.654;12.044;2023-03-21T05:20:06;100719.88;;;5.76;100.00
19797;BME280;10058;57.654;12.044;2023-03-21T05:22:33;100715.03;;;5.66;100.00
19797;BME280;10058;57.654;12.044;2023-03-21T05:25:05;100719.78;;;5.55;100.00
19797;BME280;10058;57.654;12.044;2023-03-21T05:27:30;100720.47;;;5.51;100.00
19797;BME280;10058;57.654;12.044;2023-03-21T05:29:59;100682.38;;;5.40;100.00
19797;BME280;10058;57.654;12.044;2023-03-21T05:32:25;100728.38;;;5.70;100.00
19797;BME280;10058;57.654;12.044;2023-03-21T05:34:50;100726.34;;;5.65;100.00
19797;BME280;10058;57.654;12.044;2023-03-21T05:37:15;100723.16;;;5.72;100.00
19797;BME280;10058;57.654;12.044;2023-03-21T05:39:41;100732.91;;;5.74;100.00
19797;BME280;10058;57.654;12.044;2023-03-21T05:42:06;100728.84;;;5.81;100.00
19797;BME280;10058;57.654;12.044;2023-03-21T05:44:31;100727.06;;;5.80;100.00
19797;BME280;10058;57.654;12.044;2023-03-21T05:46:56;100724.44;;;5.80;100.00
19797;BME280;10058;57.654;12.044;2023-03-21T05:49:21;100727.66;;;5.74;100.00
19797;BME280;10058;57.654;12.044;2023-03-21T05:51:47;100723.16;;;5.72;100.00
19797;BME280;10058;57.654;12.044;2023-03-21T05:54:12;100726.34;;;5.65;100.00
19797;BME280;10058;57.654;12.044;2023-03-21T05:56:40;100726.50;;;5.68;100.00
19797;BME280;10058;57.654;12.044;2023-03-21T05:59:05;100726.06;;;5.58;100.00
19797;BME280;10058;57.654;12.044;2023-03-21T06:01:31;100728.16;;;5.66;100.00
19797;BME280;10058;57.654;12.044;2023-03-21T06:03:56;100724.41;;;5.60;100.00
19797;BME280;10058;57.654;12.044;2023-03-21T06:06:21;100731.16;;;5.55;100.00
19797;BME280;10058;57.654;12.044;2023-03-21T06:08:46;100741.16;;;5.45;100.00
19797;BME280;10058;57.654;12.044;2023-03-21T06:11:18;100735.84;;;5.43;100.00
19797;BME280;10058;57.654;12.044;2023-03-21T06:13:44;100741.38;;;5.49;100.00
19797;BME280;10058;57.654;12.044;2023-03-21T06:16:09;100748.28;;;5.47;100.00
19797;BME280;10058;57.654;12.044;2023-03-21T06:18:35;100739.72;;;5.51;100.00
19797;BME280;10058;57.654;12.044;2023-03-21T06:21:00;100736.84;;;5.65;100.00
19797;BME280;10058;57.654;12.044;2023-03-21T06:23:25;100737.44;;;5.59;100.00
19797;BME280;10058;57.654;12.044;2023-03-21T06:25:51;100741.06;;;5.43;100.00
19797;BME280;10058;57.654;12.044;2023-03-21T06:28:16;100737.22;;;5.35;100.00
19797;BME280;10058;57.654;12.044;2023-03-21T06:30:41;100734.19;;;5.45;100.00
19797;BME280;10058;57.654;12.044;2023-03-21T06:33:06;100732.84;;;5.53;100.00
19797;BME280;10058;57.654;12.044;2023-03-21T06:35:31;100743.06;;;5.67;100.00
19797;BME280;10058;57.654;12.044;2023-03-21T06:37:56;100732.84;;;5.53;100.00
19797;BME280;10058;57.654;12.044;2023-03-21T06:40:23;100726.91;;;5.40;100.00
19797;BME280;10058;57.654;12.044;2023-03-21T06:42:48;100728.13;;;5.46;100.00
19797;BME280;10058;57.654;12.044;2023-03-21T06:45:13;100723.88;;;5.68;100.00
19797;BME280;10058;57.654;12.044;2023-03-21T06:47:38;100718.06;;;5.75;100.00
19797;BME280;10058;57.654;12.044;2023-03-21T06:50:03;100722.94;;;5.85;100.00
19797;BME280;10058;57.654;12.044;2023-03-21T06:52:31;100719.03;;;5.77;100.00
19797;BME280;10058;57.654;12.044;2023-03-21T06:54:56;100716.44;;;5.77;100.00
19797;BME280;10058;57.654;12.044;2023-03-21T06:57:21;100709.13;;;5.70;100.00
19797;BME280;10058;57.654;12.044;2023-03-21T06:59:46;100708.03;;;5.84;100.00
19797;BME280;10058;57.654;12.044;2023-03-21T07:02:11;100703.22;;;5.93;100.00
19797;BME280;10058;57.654;12.044;2023-03-21T07:04:36;100707.06;;;5.82;100.00
19797;BME280;10058;57.654;12.044;2023-03-21T07:07:02;100713.56;;;5.90;100.00
19797;BME280;10058;57.654;12.044;2023-03-21T07:09:27;100706.38;;;5.86;100.00
19797;BME280;10058;57.654;12.044;2023-03-21T07:11:52;100709.00;;;5.86;100.00
19797;BME280;10058;57.654;12.044;2023-03-21T07:14:18;100709.75;;;5.83;100.00
19797;BME280;10058;57.654;12.044;2023-03-21T07:16:43;100711.31;;;5.80;100.00
19797;BME280;10058;57.654;12.044;2023-03-21T07:19:08;100713.13;;;5.81;100.00
19797;BME280;10058;57.654;12.044;2023-03-21T07:21:33;100723.63;;;5.81;100.00
19797;BME280;10058;57.654;12.044;2023-03-21T07:23:58;100724.97;;;5.73;100.00
19797;BME280;10058;57.654;12.044;2023-03-21T07:26:23;100727.56;;;5.71;100.00
19797;BME280;10058;57.654;12.044;2023-03-21T07:28:49;100732.00;;;5.91;100.00
19797;BME280;10058;57.654;12.044;2023-03-21T07:31:15;100738.00;;;5.89;100.00
19797;BME280;10058;57.654;12.044;2023-03-21T07:33:41;100738.28;;;5.95;100.00
19797;BME280;10058;57.654;12.044;2023-03-21T07:36:08;100737.91;;;5.87;100.00
19797;BME280;10058;57.654;12.044;2023-03-21T07:38:33;100741.44;;;5.88;100.00
19797;BME280;10058;57.654;12.044;2023-03-21T07:40:59;100730.84;;;6.04;100.00
19797;BME280;10058;57.654;12.044;2023-03-21T07:43:24;100721.56;;;6.12;100.00
19797;BME280;10058;57.654;12.044;2023-03-21T07:45:49;100721.63;;;6.14;100.00
19797;BME280;10058;57.654;12.044;2023-03-21T07:48:15;100721.63;;;6.14;100.00
19797;BME280;10058;57.654;12.044;2023-03-21T07:50:42;100729.03;;;6.22;100.00
19797;BME280;10058;57.654;12.044;2023-03-21T07:53:07;100722.09;;;6.24;100.00
19797;BME280;10058;57.654;12.044;2023-03-21T07:55:32;100721.72;;;6.15;100.00
19797;BME280;10058;57.654;12.044;2023-03-21T07:57:59;100719.53;;;6.05;100.00
19797;BME280;10058;57.654;12.044;2023-03-21T08:00:24;100713.03;;;5.97;100.00
19797;BME280;10058;57.654;12.044;2023-03-21T08:02:50;100721.03;;;6.00;100.00
19797;BME280;10058;57.654;12.044;2023-03-21T08:05:18;100715.16;;;6.06;100.00
19797;BME280;10058;57.654;12.044;2023-03-21T08:07:44;100707.09;;;6.01;100.00
19797;BME280;10058;57.654;12.044;2023-03-21T08:10:09;100712.88;;;5.94;100.00
19797;BME280;10058;57.654;12.044;2023-03-21T08:12:35;100716.31;;;6.12;100.00
19797;BME280;10058;57.654;12.044;2023-03-21T08:15:00;100715.41;;;6.12;100.00
19797;BME280;10058;57.654;12.044;2023-03-21T08:17:26;100707.09;;;6.01;100.00
19797;BME280;10058;57.654;12.044;2023-03-21T08:19:51;100710.94;;;6.09;100.00
19797;BME280;10058;57.654;12.044;2023-03-21T08:22:16;100703.63;;;6.02;100.00
19797;BME280;10058;57.654;12.044;2023-03-21T08:24:41;100701.47;;;6.13;100.00
19797;BME280;10058;57.654;12.044;2023-03-21T08:27:06;100687.81;;;6.41;100.00
19797;BME280;10058;57.654;12.044;2023-03-21T08:29:32;100690.34;;;6.18;100.00
19797;BME280;10058;57.654;12.044;2023-03-21T08:31:57;100694.41;;;6.31;100.00
19797;BME280;10058;57.654;12.044;2023-03-21T08:34:22;100689.63;;;6.62;100.00
19797;BME280;10058;57.654;12.044;2023-03-21T08:36:47;100689.00;;;6.68;100.00
19797;BME280;10058;57.654;12.044;2023-03-21T08:39:13;100680.28;;;6.69;100.00
19797;BME280;10058;57.654;12.044;2023-03-21T08:41:38;100679.09;;;6.83;100.00
19797;BME280;10058;57.654;12.044;2023-03-21T08:44:04;100686.00;;;7.02;100.00
19797;BME280;10058;57.654;12.044;2023-03-21T08:46:30;100689.06;;;7.13;100.00
19797;BME280;10058;57.654;12.044;2023-03-21T08:48:55;100684.03;;;7.19;100.00
19797;BME280;10058;57.654;12.044;2023-03-21T08:51:20;100681.91;;;7.09;100.00
19797;BME280;10058;57.654;12.044;2023-03-21T08:53:46;100679.03;;;7.25;100.00
19797;BME280;10058;57.654;12.044;2023-03-21T08:56:11;100668.28;;;7.19;100.00
19797;BME280;10058;57.654;12.044;2023-03-21T08:58:36;100681.22;;;7.14;100.00
19797;BME280;10058;57.654;12.044;2023-03-21T09:01:02;100671.75;;;7.18;100.00
19797;BME280;10058;57.654;12.044;2023-03-21T09:03:28;100669.53;;;7.28;100.00
19797;BME280;10058;57.654;12.044;2023-03-21T09:05:54;100670.28;;;7.48;100.00
19797;BME280;10058;57.654;12.044;2023-03-21T09:08:19;100666.22;;;7.80;100.00
19797;BME280;10058;57.654;12.044;2023-03-21T09:10:54;100657.28;;;7.99;100.00
19797;BME280;10058;57.654;12.044;2023-03-21T09:13:19;100650.44;;;8.04;100.00
19797;BME280;10058;57.654;12.044;2023-03-21T09:15:45;100650.69;;;8.10;100.00
19797;BME280;10058;57.654;12.044;2023-03-21T09:18:10;100659.78;;;8.20;100.00
19797;BME280;10058;57.654;12.044;2023-03-21T09:20:40;100646.78;;;8.50;100.00
19797;BME280;10058;57.654;12.044;2023-03-21T09:23:07;100655.41;;;7.95;100.00
19797;BME280;10058;57.654;12.044;2023-03-21T09:25:32;100653.22;;;8.32;100.00
19797;BME280;10058;57.654;12.044;2023-03-21T09:27:58;100644.38;;;8.56;100.00
19797;BME280;10058;57.654;12.044;2023-03-21T09:30:23;100646.06;;;8.54;100.00
19797;BME280;10058;57.654;12.044;2023-03-21T09:32:49;100645.31;;;8.32;100.00
19797;BME280;10058;57.654;12.044;2023-03-21T09:35:16;100654.78;;;8.27;100.00
19797;BME280;10058;57.654;12.044;2023-03-21T09:37:42;100651.09;;;8.22;100.00
19797;BME280;10058;57.654;12.044;2023-03-21T09:40:54;100646.66;;;8.21;100.00
19797;BME280;10058;57.654;12.044;2023-03-21T09:42:57;100642.13;;;8.17;100.00
19797;BME280;10058;57.654;12.044;2023-03-21T09:47:54;100650.97;;;8.19;100.00
19797;BME280;10058;57.654;12.044;2023-03-21T09:50:33;100639.59;;;8.44;100.00
19797;BME280;10058;57.654;12.044;2023-03-21T09:55:36;100632.84;;;9.06;100.00
19797;BME280;10058;57.654;12.044;2023-03-21T09:58:10;100642.38;;;9.02;100.00
19797;BME280;10058;57.654;12.044;2023-03-21T10:00:41;100640.63;;;9.30;100.00
19797;BME280;10058;57.654;12.044;2023-03-21T10:03:12;100642.84;;;8.89;100.00
19797;BME280;10058;57.654;12.044;2023-03-21T10:05:43;100641.75;;;9.10;100.00
19797;BME280;10058;57.654;12.044;2023-03-21T10:08:17;100641.56;;;8.77;100.00
19797;BME280;10058;57.654;12.044;2023-03-21T10:10:47;100640.16;;;9.15;100.00
19797;BME280;10058;57.654;12.044;2023-03-21T10:13:15;100631.91;;;9.32;100.00
19797;BME280;10058;57.654;12.044;2023-03-21T10:15:41;100630.53;;;9.45;100.00
19797;BME280;10058;57.654;12.044;2023-03-21T10:18:06;100625.84;;;9.36;100.00
19797;BME280;10058;57.654;12.044;2023-03-21T10:20:35;100622.50;;;9.42;100.00
19797;BME280;10058;57.654;12.044;2023-03-21T10:23:05;100618.00;;;9.38;100.00
19797;BME280;10058;57.654;12.044;2023-03-21T10:27:56;100612.66;;;9.35;100.00
19797;BME280;10058;57.654;12.044;2023-03-21T10:30:36;100612.00;;;9.73;100.00
19797;BME280;10058;57.654;12.044;2023-03-21T10:33:03;100616.97;;;9.33;100.00
19797;BME280;10058;57.654;12.044;2023-03-21T10:35:30;100598.38;;;9.58;100.00
19797;BME280;10058;57.654;12.044;2023-03-21T10:37:57;100604.78;;;9.66;100.00
19797;BME280;10058;57.654;12.044;2023-03-21T10:40:23;100597.50;;;9.59;100.00
19797;BME280;10058;57.654;12.044;2023-03-21T10:42:48;100595.28;;;9.43;100.00
19797;BME280;10058;57.654;12.044;2023-03-21T10:45:15;100593.03;;;9.57;100.00
19797;BME280;10058;57.654;12.044;2023-03-21T10:47:42;100578.81;;;9.82;100.00
19797;BME280;10058;57.654;12.044;2023-03-21T10:50:11;100589.44;;;9.85;100.00
19797;BME280;10058;57.654;12.044;2023-03-21T10:52:37;100583.78;;;9.41;100.00
19797;BME280;10058;57.654;12.044;2023-03-21T10:55:07;100585.69;;;9.45;100.00
19797;BME280;10058;57.654;12.044;2023-03-21T10:57:40;100590.19;;;9.49;100.00
19797;BME280;10058;57.654;12.044;2023-03-21T11:00:06;100589.19;;;9.75;100.00
19797;BME280;10058;57.654;12.044;2023-03-21T11:02:40;100584.00;;;9.78;100.00
19797;BME280;10058;57.654;12.044;2023-03-21T11:05:08;100587.28;;;9.71;100.00
19797;BME280;10058;57.654;12.044;2023-03-21T11:07:41;100579.75;;;9.52;100.00
19797;BME280;10058;57.654;12.044;2023-03-21T11:10:15;100583.75;;;9.69;100.00
19797;BME280;10058;57.654;12.044;2023-03-21T11:12:41;100581.06;;;9.38;100.00
19797;BME280;10058;57.654;12.044;2023-03-21T11:17:54;100562.25;;;10.20;100.00
19797;BME280;10058;57.654;12.044;2023-03-21T11:20:20;100559.16;;;10.05;100.00
19797;BME280;10058;57.654;12.044;2023-03-21T11:22:45;100549.50;;;10.04;100.00
19797;BME280;10058;57.654;12.044;2023-03-21T11:25:23;100547.16;;;9.83;100.00
19797;BME280;10058;57.654;12.044;2023-03-21T11:27:50;100544.63;;;9.86;100.00
19797;BME280;10058;57.654;12.044;2023-03-21T11:30:20;100542.69;;;10.13;100.00
19797;BME280;10058;57.654;12.044;2023-03-21T11:32:49;100541.56;;;10.04;100.00
19797;BME280;10058;57.654;12.044;2023-03-21T11:35:17;100541.56;;;10.04;100.00
19797;BME280;10058;57.654;12.044;2023-03-21T11:37:45;100533.88;;;10.13;100.00
19797;BME280;10058;57.654;12.044;2023-03-21T11:42:47;100523.22;;;10.44;100.00
19797;BME280;10058;57.654;12.044;2023-03-21T11:45:17;100520.59;;;10.44;100.00
19797;BME280;10058;57.654;12.044;2023-03-21T11:47:43;100520.78;;;10.18;100.00
19797;BME280;10058;57.654;12.044;2023-03-21T11:52:39;100507.53;;;10.16;100.00
19797;BME280;10058;57.654;12.044;2023-03-21T11:57:43;100509.34;;;10.53;100.00
19797;BME280;10058;57.654;12.044;2023-03-21T12:00:20;100500.16;;;10.75;100.00
19797;BME280;10058;57.654;12.044;2023-03-21T12:05:33;100505.25;;;10.30;100.00
19797;BME280;10058;57.654;12.044;2023-03-21T12:15:54;100493.13;;;10.36;100.00
19797;BME280;10058;57.654;12.044;2023-03-21T12:21:07;100485.72;;;10.23;100.00
19797;BME280;10058;57.654;12.044;2023-03-21T12:23:37;100494.81;;;10.00;100.00
19797;BME280;10058;57.654;12.044;2023-03-21T12:29:13;100489.81;;;10.12;100.00
19797;BME280;10058;57.654;12.044;2023-03-21T12:39:33;100485.22;;;10.39;100.00
19797;BME280;10058;57.654;12.044;2023-03-21T12:42:03;100475.59;;;10.07;100.00
19797;BME280;10058;57.654;12.044;2023-03-21T12:44:34;100486.03;;;10.01;100.00
19797;BME280;10058;57.654;12.044;2023-03-21T12:47:03;100490.56;;;10.06;100.00
19797;BME280;10058;57.654;12.044;2023-03-21T12:52:00;100479.44;;;10.18;100.00
19797;BME280;10058;57.654;12.044;2023-03-21T12:54:29;100470.81;;;10.25;100.00
19797;BME280;10058;57.654;12.044;2023-03-21T12:56:58;100461.44;;;10.38;100.00
19797;BME280;10058;57.654;12.044;2023-03-21T12:59:30;100458.84;;;10.41;100.00
19797;BME280;10058;57.654;12.044;2023-03-21T13:01:59;100455.78;;;10.60;100.00
19797;BME280;10058;57.654;12.044;2023-03-21T13:07:28;100459.22;;;10.58;100.00
19797;BME280;10058;57.654;12.044;2023-03-21T13:09:55;100455.53;;;10.50;100.00
19797;BME280;10058;57.654;12.044;2023-03-21T13:12:27;100455.63;;;10.53;100.00
19797;BME280;10058;57.654;12.044;2023-03-21T13:17:44;100445.16;;;10.20;100.00
19797;BME280;10058;57.654;12.044;2023-03-21T13:22:44;100445.78;;;10.11;100.00
19797;BME280;10058;57.654;12.044;2023-03-21T13:28:38;100445.34;;;9.93;100.00
19797;BME280;10058;57.654;12.044;2023-03-21T13:31:19;100446.81;;;9.82;100.00
19797;BME280;10058;57.654;12.044;2023-03-21T13:33:48;100453.28;;;8.95;100.00
19797;BME280;10058;57.654;12.044;2023-03-21T13:36:20;100438.06;;;9.18;100.00
19797;BME280;10058;57.654;12.044;2023-03-21T13:38:50;100430.47;;;9.29;100.00
19797;BME280;10058;57.654;12.044;2023-03-21T13:41:29;100426.22;;;9.34;100.00
19797;BME280;10058;57.654;12.044;2023-03-21T13:49:27;100423.13;;;9.17;100.00
19797;BME280;10058;57.654;12.044;2023-03-21T13:51:53;100422.75;;;9.35;100.00
19797;BME280;10058;57.654;12.044;2023-03-21T13:59:55;100404.13;;;8.97;100.00
19797;BME280;10058;57.654;12.044;2023-03-21T14:01:57;100408.91;;;8.81;100.00
19797;BME280;10058;57.654;12.044;2023-03-21T14:07:29;100398.94;;;8.41;100.00
19797;BME280;10058;57.654;12.044;2023-03-21T14:09:58;100396.34;;;8.42;100.00
19797;BME280;10058;57.654;12.044;2023-03-21T14:15:29;100386.22;;;8.27;100.00
19797;BME280;10058;57.654;12.044;2023-03-21T14:17:58;100386.19;;;7.99;100.00
19797;BME280;10058;57.654;12.044;2023-03-21T14:20:26;100383.34;;;8.20;100.00
19797;BME280;10058;57.654;12.044;2023-03-21T14:22:51;100385.03;;;8.18;100.00